Skamania, Washington
Current Conditions -  °F | °C
As of 11:39 PM on Friday 28 Nov 2014 (Local Time) from K4S2 Reporting Station
Overcast Overcast  
Wind Chill: 40°   Ceiling: 4500
Heat Index: 43°   Visibility: 10mi
Dew Point: 36°   Wind: 5mph
Humidity: 76%   Direction: 310°NW
Pressure: 29.53"   Gusts: NA
Location:  46.0755°N, 121.895°W
Report Text: K4S2 290739Z AUTO 31004KT 10SM SCT034 BKN045 OVC070 06/02 A2953 RMK AO2 SLP015 T00600020
Loading
Personal Weather Stations






























Interactive Weather Map New forecast layout! Learn more

10-Day Weather Forecast

Advertisements
Track Severe Weather on mobile